Stafford, Kansas
Current Conditions -  °F | °C
As of 8:35 PM on Sunday 21 Dec 2014 (Local Time) from KPTT Reporting Station
Haze Haze  
Wind Chill: 35°   Ceiling: 200
Heat Index: 43°   Visibility: 3mi
Dew Point: 41°   Wind: 15mph
Humidity: 93%   Direction: 170°S
Pressure: 29.64"   Gusts: NA
Location:  37.96°N, 98.6°W
Report Text: KPTT 220235Z AUTO 17013KT 3SM BR OVC002 06/05 A2964 RMK AO2
Loading
Personal Weather Stations






























Interactive Weather Map New forecast layout! Learn more

10-Day Weather Forecast

Advertisements
Track Severe Weather on mobile